Time;durP1;ratioP1;P1;durP2;ratioP2;P2;SDS_P1;SDS_P2;PMS_P1;PMS_P2;Temp;Humidity;BMP_temperature;BMP_pressure;BME280_temperature;BME280_humidity;BME280_pressure;Samples;Min_cycle;Max_cycle;Signal;HPM_P1;HPM_P2
2022/09/24 04:44:46;;;;;;;20.57;15.00;;;;;;;5.76;100.00;97970.13;1890616;76;22690;-58
2022/09/24 04:47:10;;;;;;;15.70;11.45;;;;;;;5.70;100.00;97972.52;1861155;77;21492;-58
2022/09/24 04:49:38;;;;;;;12.85;9.98;;;;;;;5.71;100.00;97966.12;1861475;77;22071;-56
2022/09/24 04:52:05;;;;;;;10.03;7.90;;;;;;;5.76;100.00;97971.45;1861487;77;20864;-58
2022/09/24 04:54:32;;;;;;;8.78;7.05;;;;;;;5.81;100.00;97967.50;1861485;77;20954;-58
2022/09/24 04:56:59;;;;;;;10.10;6.60;;;;;;;5.87;100.00;97969.13;1854536;77;20883;-58
2022/09/24 04:59:26;;;;;;;12.80;7.47;;;;;;;5.94;100.00;97964.38;1786567;80;21423;-58
2022/09/24 05:01:53;;;;;;;9.38;7.80;;;;;;;6.02;100.00;97971.34;1767219;80;21109;-58
2022/09/24 05:04:22;;;;;;;9.18;6.95;;;;;;;6.07;100.00;97971.88;1791145;80;20927;-57
2022/09/24 05:06:50;;;;;;;9.35;7.03;;;;;;;6.09;100.00;97973.74;1758791;81;20853;-58
2022/09/24 05:09:18;;;;;;;10.48;6.80;;;;;;;6.12;100.00;97978.55;1790985;80;21450;-58
2022/09/24 05:11:45;;;;;;;8.10;7.17;;;;;;;6.14;100.00;97981.73;1778699;80;20896;-57
2022/09/24 05:14:13;;;;;;;9.93;7.70;;;;;;;6.16;100.00;97976.95;1795233;80;21286;-57
2022/09/24 05:16:40;;;;;;;8.65;6.78;;;;;;;6.20;100.00;97988.66;1795168;80;20888;-57
2022/09/24 05:19:07;;;;;;;9.28;7.00;;;;;;;6.22;100.00;97987.09;1795235;80;20888;-55
2022/09/24 05:21:35;;;;;;;8.95;6.30;;;;;;;6.23;100.00;97984.16;1795237;80;20941;-58
2022/09/24 05:24:02;;;;;;;8.75;6.08;;;;;;;6.27;100.00;97991.06;1795206;80;21402;-56
2022/09/24 05:29:15;;;;;;;;;;;;;;;6.39;100.00;97983.13;1797782;80;21439;-57
2022/09/24 05:31:42;;;;;;;10.38;7.12;;;;;;;6.46;100.00;97983.67;1795540;80;20147;-56
2022/09/24 05:34:10;;;;;;;7.45;6.72;;;;;;;6.51;100.00;97989.00;1795162;80;21486;-57
2022/09/24 05:36:37;;;;;;;9.20;7.17;;;;;;;6.55;100.00;97986.59;1795203;80;20916;-56
2022/09/24 05:39:04;;;;;;;8.53;7.62;;;;;;;6.59;100.00;97989.83;1795222;80;21110;-56
2022/09/24 05:41:32;;;;;;;7.80;6.47;;;;;;;6.66;100.00;97991.70;1795117;80;20892;-56
2022/09/24 05:44:00;;;;;;;7.75;6.72;;;;;;;6.74;100.00;97989.02;1784662;80;20920;-56
2022/09/24 05:46:28;;;;;;;11.33;6.47;;;;;;;6.82;100.00;97995.96;1779005;80;20900;-56
2022/09/24 05:48:55;;;;;;;9.63;6.85;;;;;;;6.88;100.00;97994.08;1778543;80;20970;-57
2022/09/24 05:51:22;;;;;;;7.70;6.25;;;;;;;6.95;100.00;97996.50;1778502;80;21479;-57
2022/09/24 05:53:50;;;;;;;8.90;6.17;;;;;;;7.02;100.00;97995.70;1778423;80;20980;-57
2022/09/24 05:56:17;;;;;;;11.50;6.53;;;;;;;7.11;100.00;98001.56;1768503;81;20885;-56
2022/09/24 05:58:49;;;;;;;11.28;6.90;;;;;;;7.15;100.00;98004.47;1777964;80;20886;-57
2022/09/24 06:01:16;;;;;;;8.35;6.75;;;;;;;7.24;100.00;97998.87;1768128;81;21353;-57
2022/09/24 06:03:43;;;;;;;7.28;6.25;;;;;;;7.33;100.00;98001.25;1777971;80;21306;-57
2022/09/24 06:06:10;;;;;;;9.15;6.05;;;;;;;7.42;100.00;97999.10;1777919;80;20959;-57
2022/09/24 06:08:41;;;;;;;7.17;5.95;;;;;;;7.50;100.00;98001.77;1778016;80;20885;-59
2022/09/24 06:11:09;;;;;;;7.35;5.92;;;;;;;7.52;100.00;97998.28;1816530;78;20869;-55
2022/09/24 06:13:38;;;;;;;8.08;6.45;;;;;;;7.54;100.00;97997.48;1768414;81;20933;-56
2022/09/24 06:16:08;;;;;;;8.18;6.10;;;;;;;7.50;100.00;98003.09;1777964;80;21183;-56
2022/09/24 06:18:39;;;;;;;7.33;6.10;;;;;;;7.46;100.00;98000.19;1777837;80;20849;-59
2022/09/24 06:21:13;;;;;;;9.03;5.90;;;;;;;7.43;100.00;97999.91;1777950;80;20909;-57
2022/09/24 06:23:41;;;;;;;8.07;6.37;;;;;;;7.42;100.00;98004.96;1778167;80;20975;-55
2022/09/24 06:26:10;;;;;;;7.10;5.58;;;;;;;7.39;100.00;98000.19;1777936;80;20893;-55
2022/09/24 06:28:38;;;;;;;7.45;5.50;;;;;;;7.37;100.00;98000.44;1777978;80;21238;-54
2022/09/24 06:31:05;;;;;;;6.58;5.33;;;;;;;7.39;100.00;98002.86;1777893;80;20920;-54
2022/09/24 06:33:33;;;;;;;7.35;5.85;;;;;;;7.43;100.00;98003.37;1777880;80;20913;-59
2022/09/24 06:36:02;;;;;;;10.90;5.80;;;;;;;7.56;100.00;98010.00;1777930;80;20995;-56
2022/09/24 06:38:29;;;;;;;7.22;5.80;;;;;;;7.73;100.00;98005.16;1777984;80;20870;-58
2022/09/24 06:41:01;;;;;;;9.15;5.62;;;;;;;7.88;100.00;98009.66;1777850;80;21282;-57
2022/09/24 06:43:28;;;;;;;7.35;5.42;;;;;;;7.97;100.00;98004.82;1842006;77;20865;-59
2022/09/24 06:45:56;;;;;;;6.92;5.53;;;;;;;8.03;100.00;98010.38;1777045;80;20873;-58
2022/09/24 06:48:26;;;;;;;10.30;6.17;;;;;;;8.09;100.00;98008.50;1780957;80;20979;-57
2022/09/24 06:50:55;;;;;;;6.92;5.78;;;;;;;8.12;99.78;98009.30;1810946;78;20981;-60
2022/09/24 06:53:26;;;;;;;7.17;5.53;;;;;;;8.15;99.64;98007.40;1849014;77;22040;-57
2022/09/24 06:55:58;;;;;;;6.17;5.33;;;;;;;8.18;99.28;98010.33;1856907;77;20916;-58
2022/09/24 06:58:31;;;;;;;6.67;5.70;;;;;;;8.18;98.89;98007.66;1847360;77;21132;-58
2022/09/24 07:01:05;;;;;;;5.87;5.05;;;;;;;8.22;98.97;98018.57;1848920;77;21558;-58
2022/09/24 07:03:33;;;;;;;5.97;5.30;;;;;;;8.24;98.73;98013.78;1846954;77;20876;-56
2022/09/24 07:06:05;;;;;;;5.05;4.47;;;;;;;8.24;98.60;98014.56;1845823;77;21002;-57
2022/09/24 07:08:34;;;;;;;6.78;5.30;;;;;;;8.24;98.72;98011.89;1802367;77;20977;-57
2022/09/24 07:11:04;;;;;;;7.53;5.20;;;;;;;8.27;98.73;98013.81;1850970;77;20997;-59
2022/09/24 07:13:32;;;;;;;6.15;5.50;;;;;;;8.32;98.65;98012.42;1842574;77;21052;-57
2022/09/24 07:16:00;;;;;;;5.85;5.20;;;;;;;8.45;98.56;98015.84;1809938;78;21104;-57
2022/09/24 07:18:31;;;;;;;6.83;5.22;;;;;;;8.59;98.51;98012.82;1843403;77;21898;-58
2022/09/24 07:20:58;;;;;;;5.47;4.95;;;;;;;8.77;97.82;98011.63;1860272;77;21367;-56
2022/09/24 07:23:26;;;;;;;9.85;5.55;;;;;;;8.96;98.18;98011.75;1857876;77;20909;-58
2022/09/24 07:25:57;;;;;;;7.75;5.70;;;;;;;9.18;97.53;98013.45;1856399;77;20978;-57
2022/09/24 07:28:25;;;;;;;5.92;4.85;;;;;;;9.35;96.51;98010.38;1817755;77;21047;-58
2022/09/24 07:31:00;;;;;;;7.40;5.03;;;;;;;9.48;95.59;98017.72;1825256;77;21458;-57
2022/09/24 07:33:29;;;;;;;9.23;5.55;;;;;;;9.61;95.15;98015.70;1858348;77;20817;-56
2022/09/24 07:35:57;;;;;;;6.65;5.08;;;;;;;9.74;94.49;98024.41;1825299;77;20947;-56
2022/09/24 07:38:24;;;;;;;7.50;4.70;;;;;;;9.90;94.29;98016.47;1857795;77;20884;-55
2022/09/24 07:40:57;;;;;;;5.83;4.65;;;;;;;10.05;93.19;98018.18;1849302;77;21009;-58
2022/09/24 07:43:25;;;;;;;6.42;5.35;;;;;;;10.22;92.62;98017.21;1823775;77;21707;-56
2022/09/24 07:45:54;;;;;;;9.58;4.80;;;;;;;10.37;92.12;98021.02;1842858;77;21018;-57
2022/09/24 07:48:21;;;;;;;17.30;5.10;;;;;;;10.53;91.85;98018.38;1767660;81;21499;-57
2022/09/24 07:50:50;;;;;;;4.78;4.28;;;;;;;10.73;90.87;98019.45;1767012;81;20944;-61
2022/09/24 07:53:18;;;;;;;5.53;4.28;;;;;;;10.94;88.62;98023.42;1775373;80;21053;-59
2022/09/24 07:55:45;;;;;;;5.70;4.03;;;;;;;11.09;86.86;98023.73;1837667;78;21782;-57
2022/09/24 07:58:15;;;;;;;5.67;4.12;;;;;;;11.25;87.75;98022.39;1766866;81;21011;-60
2022/09/24 08:00:42;;;;;;;6.85;3.87;;;;;;;11.46;86.02;98026.86;1775245;80;21491;-61
2022/09/24 08:03:14;;;;;;;5.17;3.90;;;;;;;11.58;83.41;98027.19;1768507;81;20941;-58
2022/09/24 08:05:44;;;;;;;6.10;3.90;;;;;;;11.62;79.94;98031.67;1777874;80;21422;-57
2022/09/24 08:08:12;;;;;;;4.37;3.98;;;;;;;11.55;77.38;98029.11;1777922;80;21072;-57
2022/09/24 08:10:41;;;;;;;5.65;3.90;;;;;;;11.43;77.61;98028.78;1777728;80;20972;-56
2022/09/24 08:13:08;;;;;;;3.67;3.30;;;;;;;11.31;78.48;98032.47;1777884;80;20905;-57
2022/09/24 08:15:35;;;;;;;3.80;3.45;;;;;;;11.31;79.03;98028.45;1777901;80;20857;-57
2022/09/24 08:18:03;;;;;;;4.83;3.55;;;;;;;11.37;77.20;98028.63;1777904;80;21028;-60
2022/09/24 08:20:32;;;;;;;4.22;3.40;;;;;;;11.37;75.82;98025.41;1840005;78;21077;-58
2022/09/24 08:23:01;;;;;;;5.10;3.77;;;;;;;11.37;75.81;98020.05;1838860;77;20912;-60
2022/09/24 08:25:28;;;;;;;4.28;3.80;;;;;;;11.41;75.61;98028.28;1764460;80;21002;-60
2022/09/24 08:27:55;;;;;;;9.45;4.12;;;;;;;11.45;75.27;98022.04;1807902;79;20996;-60
2022/09/24 08:30:22;;;;;;;4.83;3.67;;;;;;;11.47;74.31;98028.47;1801893;79;21450;-58
2022/09/24 08:32:51;;;;;;;5.05;3.50;;;;;;;11.54;74.43;98024.29;1808922;79;20940;-62
2022/09/24 08:35:18;;;;;;;4.00;3.60;;;;;;;11.63;75.11;98021.73;1765590;80;20838;-62
2022/09/24 08:37:45;;;;;;;4.45;3.58;;;;;;;11.81;74.64;98023.57;1777568;80;21398;-55
2022/09/24 08:40:22;;;;;;;3.95;3.55;;;;;;;11.91;73.85;98026.08;1776017;80;21457;-55
2022/09/24 08:43:04;;;;;;;3.85;3.40;;;;;;;11.96;73.30;98021.16;1777092;80;21556;-57
2022/09/24 08:48:20;;;;;;;4.83;3.45;;;;;;;12.10;70.38;98033.48;1783038;80;20930;-56
2022/09/24 08:50:59;;;;;;;5.53;3.37;;;;;;;12.04;69.08;98026.61;1783902;80;21384;-57
2022/09/24 08:53:56;;;;;;;3.30;2.95;;;;;;;12.02;68.74;98030.69;1783112;80;21101;-58
2022/09/24 08:56:27;;;;;;;8.03;3.30;;;;;;;12.03;69.21;98019.67;1783932;80;20943;-57
2022/09/24 08:59:03;;;;;;;3.98;3.37;;;;;;;12.25;69.85;98024.31;1783872;80;21201;-57
2022/09/24 09:01:47;;;;;;;3.20;2.87;;;;;;;12.44;70.39;98016.92;1783504;80;21025;-58
2022/09/24 09:04:34;;;;;;;4.83;3.50;;;;;;;12.51;68.81;98014.63;1783582;80;20934;-56
2022/09/24 09:07:20;;;;;;;4.70;3.55;;;;;;;12.48;68.06;98021.97;1783575;80;20994;-58
2022/09/24 09:10:02;;;;;;;4.97;3.25;;;;;;;12.44;68.51;98020.16;1783590;80;20958;-56
2022/09/24 09:12:36;;;;;;;3.10;2.83;;;;;;;12.53;68.63;98011.66;1783780;80;21238;-57
2022/09/24 09:15:19;;;;;;;4.03;3.02;;;;;;;12.52;65.72;98017.57;1776071;80;20959;-55
2022/09/24 09:18:13;;;;;;;4.00;2.95;;;;;;;12.42;66.37;98013.75;1765810;80;20974;-57
2022/09/24 09:20:45;;;;;;;4.28;3.45;;;;;;;12.46;67.99;98016.64;1738347;81;21026;-57
2022/09/24 09:23:18;;;;;;;5.55;3.30;;;;;;;12.52;65.87;98020.80;1753203;81;20998;-55
2022/09/24 09:25:55;;;;;;;6.42;3.65;;;;;;;12.50;66.18;98019.77;1763125;80;21364;-57
2022/09/24 09:28:22;;;;;;;3.98;3.40;;;;;;;12.54;65.10;98019.95;1770583;80;21006;-58
2022/09/24 09:31:37;;;;;;;3.45;3.15;;;;;;;12.49;64.92;98016.02;1779926;80;20956;-57
2022/09/24 09:34:16;;;;;;;4.42;2.98;;;;;;;12.53;65.82;98014.34;1774464;80;21018;-56
2022/09/24 09:37:27;;;;;;;3.50;2.90;;;;;;;12.70;65.97;98009.91;1775890;80;20987;-56
2022/09/24 09:40:09;;;;;;;3.55;3.17;;;;;;;12.68;64.66;98016.67;1787793;79;21249;-58
2022/09/24 09:42:39;;;;;;;4.17;3.77;;;;;;;12.68;65.67;98006.73;1790421;79;20868;-58
2022/09/24 09:45:28;;;;;;;3.87;2.98;;;;;;;12.85;65.42;98002.05;1785975;79;20947;-57
2022/09/24 09:47:56;;;;;;;6.12;4.62;;;;;;;12.88;65.35;98009.52;1795553;79;20919;-59
2022/09/24 09:50:37;;;;;;;3.15;2.85;;;;;;;12.94;65.92;98007.74;1842840;77;20986;-56
2022/09/24 09:53:04;;;;;;;4.12;3.00;;;;;;;13.09;62.95;98004.48;1849035;77;21200;-58
2022/09/24 09:55:35;;;;;;;4.20;3.00;;;;;;;13.20;63.19;98008.50;1849251;77;20923;-57
2022/09/24 09:58:18;;;;;;;5.80;3.00;;;;;;;13.30;62.24;98009.61;1849172;77;20958;-56
2022/09/24 10:00:48;;;;;;;3.58;3.08;;;;;;;13.33;60.09;98017.84;1849604;77;20919;-62
2022/09/24 10:03:36;;;;;;;4.10;3.35;;;;;;;13.36;60.14;98015.89;1849229;77;21382;-58
2022/09/24 10:06:05;;;;;;;4.22;3.20;;;;;;;13.38;60.48;98016.38;1845350;77;21252;-57
2022/09/24 10:08:33;;;;;;;4.87;3.12;;;;;;;13.21;61.50;98018.97;1848540;77;20876;-58
2022/09/24 10:11:02;;;;;;;4.08;3.15;;;;;;;13.07;61.35;98019.58;1850720;77;20932;-58
2022/09/24 10:13:32;;;;;;;4.25;3.08;;;;;;;12.83;62.52;98025.21;1852714;77;21376;-59
2022/09/24 10:16:04;;;;;;;4.03;3.55;;;;;;;12.62;64.18;98028.11;1837129;77;21486;-57
2022/09/24 10:18:42;;;;;;;4.67;3.52;;;;;;;12.54;65.40;98023.97;1828039;77;21163;-58
2022/09/24 10:21:12;;;;;;;5.22;3.40;;;;;;;12.45;66.21;98031.16;1821867;78;20874;-59
2022/09/24 10:23:46;;;;;;;3.42;3.08;;;;;;;12.36;66.80;98029.17;1832614;77;20900;-57
2022/09/24 10:26:13;;;;;;;5.10;3.50;;;;;;;12.29;67.14;98028.78;1849714;77;20876;-56
2022/09/24 10:31:37;;;;;;;5.97;3.37;;;;;;;12.26;67.27;98029.40;1821810;78;21232;-56
2022/09/24 10:34:07;;;;;;;3.17;2.87;;;;;;;12.32;67.55;98029.53;1824178;77;20900;-58
2022/09/24 10:36:34;;;;;;;3.60;2.77;;;;;;;12.36;66.83;98029.73;1836903;77;21489;-57
2022/09/24 10:39:14;;;;;;;4.47;2.83;;;;;;;12.40;66.93;98023.20;1847928;77;21051;-58
2022/09/24 10:50:28;;;;;;;3.62;2.72;;;;;;;12.49;66.16;98024.08;1827218;78;20896;-59
2022/09/24 10:53:17;;;;;;;3.92;2.77;;;;;;;12.42;65.23;98029.06;1816229;78;21569;-58
2022/09/24 10:55:59;;;;;;;2.83;2.37;;;;;;;12.24;65.00;98026.22;1832364;78;20900;-58
2022/09/24 10:58:56;;;;;;;5.45;3.35;;;;;;;12.12;65.39;98027.27;1754462;81;21231;-58
2022/09/24 11:01:31;;;;;;;7.12;4.22;;;;;;;12.07;66.60;98038.10;1686956;82;21135;-58
2022/09/24 11:04:38;;;;;;;4.00;3.60;;;;;;;11.97;67.00;98030.78;1805635;79;20904;-62
2022/09/24 11:07:37;;;;;;;6.53;3.85;;;;;;;11.94;67.74;98028.14;1787162;79;20931;-60
2022/09/24 11:10:53;;;;;;;5.28;3.95;;;;;;;11.98;68.52;98030.50;1805862;78;20916;-59
2022/09/24 11:13:29;;;;;;;4.08;3.47;;;;;;;12.03;68.71;98024.23;1803106;79;22054;-58
2022/09/24 11:16:29;;;;;;;4.60;3.35;;;;;;;12.04;68.48;98026.61;1723113;82;20916;-57
2022/09/24 11:19:04;;;;;;;6.95;3.08;;;;;;;12.01;67.91;98025.86;1784160;79;21411;-57
2022/09/24 11:21:58;;;;;;;7.67;2.92;;;;;;;11.99;68.26;98028.59;1819905;78;20919;-58
2022/09/24 11:25:04;;;;;;;7.00;3.08;;;;;;;11.98;68.30;98037.21;1827282;78;20872;-57
2022/09/24 11:28:06;;;;;;;3.95;2.87;;;;;;;11.97;68.30;98028.90;1812309;78;21451;-56
2022/09/24 11:31:08;;;;;;;5.00;2.87;;;;;;;12.01;68.91;98035.83;1820346;78;20915;-57
2022/09/24 11:34:22;;;;;;;3.65;3.00;;;;;;;12.05;69.21;98030.90;1819213;78;20906;-59
2022/09/24 11:36:58;;;;;;;4.28;2.60;;;;;;;12.07;68.01;98031.39;1828223;78;20912;-56
2022/09/24 11:39:40;;;;;;;5.12;2.55;;;;;;;12.16;68.30;98028.80;1813586;78;21387;-59
2022/09/24 11:42:24;;;;;;;5.70;3.00;;;;;;;12.32;68.63;98024.70;1825098;78;21081;-59
2022/09/24 11:45:19;;;;;;;2.77;2.47;;;;;;;12.45;67.45;98028.47;1768211;80;20900;-58
2022/09/24 11:48:01;;;;;;;3.08;2.67;;;;;;;12.51;67.45;98029.94;1805449;79;20852;-57
2022/09/24 11:50:57;;;;;;;4.37;2.90;;;;;;;12.53;65.39;98021.06;1805585;79;20932;-58
2022/09/24 11:53:59;;;;;;;4.28;2.83;;;;;;;12.51;65.86;98024.57;1805586;79;20916;-58
2022/09/24 11:56:37;;;;;;;3.77;2.98;;;;;;;12.52;66.39;98026.17;1805613;79;21074;-57
2022/09/24 11:59:34;;;;;;;6.03;3.17;;;;;;;12.56;65.79;98020.44;1805512;79;21454;-58
2022/09/24 12:02:16;;;;;;;;;;;;;;;12.64;65.38;98027.80;1808292;79;21500;-58
2022/09/24 12:05:21;;;;;;;3.98;3.10;;;;;;;12.75;65.49;98026.46;1800941;79;20098;-59
2022/09/24 12:07:57;;;;;;;3.52;2.58;;;;;;;12.80;63.08;98014.26;1807639;78;20997;-59
2022/09/24 12:10:44;;;;;;;2.85;2.50;;;;;;;12.75;63.25;98019.20;1805483;79;21090;-58
2022/09/24 12:13:26;;;;;;;4.08;2.98;;;;;;;12.75;62.45;98021.09;1805500;79;20920;-59
2022/09/24 12:16:06;;;;;;;3.55;2.70;;;;;;;12.74;62.86;98020.86;1805462;79;21449;-58
2022/09/24 12:18:59;;;;;;;4.60;2.80;;;;;;;12.74;63.43;98013.57;1805455;79;20900;-56
2022/09/24 12:21:41;;;;;;;3.50;2.55;;;;;;;12.77;62.73;98012.97;1839610;78;20852;-57
2022/09/24 12:24:28;;;;;;;3.90;2.77;;;;;;;12.77;63.04;98017.55;1841721;78;21229;-57
2022/09/24 12:26:58;;;;;;;4.50;2.83;;;;;;;12.76;62.47;98016.77;1841562;78;21513;-58
2022/09/24 12:33:12;;;;;;;4.10;2.95;;;;;;;12.71;62.59;98013.39;1841701;77;20900;-57
2022/09/24 12:36:10;;;;;;;4.25;2.60;;;;;;;12.72;61.95;98006.91;1838556;78;21391;-56
2022/09/24 12:38:49;;;;;;;3.00;2.70;;;;;;;12.73;62.14;98005.82;1838478;78;21232;-56
2022/09/24 12:41:35;;;;;;;3.50;2.67;;;;;;;12.78;60.86;98005.70;1765857;79;20892;-56
2022/09/24 12:44:19;;;;;;;3.95;3.47;;;;;;;12.89;61.24;98020.50;1838574;78;21442;-57
2022/09/24 12:46:54;;;;;;;10.18;6.83;;;;;;;13.07;60.53;98003.99;1841397;77;20841;-59
2022/09/24 12:49:34;;;;;;;5.72;4.10;;;;;;;13.22;61.06;98007.09;1841741;77;20971;-59
2022/09/24 12:52:17;;;;;;;4.65;3.35;;;;;;;13.58;60.80;98002.42;1841726;78;21226;-60
2022/09/24 12:54:44;;;;;;;12.13;3.60;;;;;;;13.88;59.64;98002.15;1841328;78;21043;-56
2022/09/24 12:57:24;;;;;;;4.30;3.47;;;;;;;13.98;57.58;98009.16;1841404;77;20901;-56
2022/09/24 12:59:59;;;;;;;4.70;3.50;;;;;;;13.99;58.27;98013.45;1841415;78;21031;-57
2022/09/24 13:02:28;;;;;;;;;;;;;;;14.03;57.68;98007.13;1849748;77;20987;-58
2022/09/24 13:05:28;;;;;;;6.12;3.58;;;;;;;14.01;57.50;98005.84;1847376;77;21095;-56
2022/09/24 13:08:01;;;;;;;5.62;4.00;;;;;;;13.92;57.30;98007.14;1824745;77;21399;-56
2022/09/24 13:10:33;;;;;;;8.33;5.00;;;;;;;13.78;58.56;98007.80;1839175;77;21374;-56
2022/09/24 13:13:03;;;;;;;4.97;3.25;;;;;;;13.83;58.91;98002.83;1838931;78;20975;-56
2022/09/24 13:15:39;;;;;;;5.03;3.37;;;;;;;13.90;58.26;98005.86;1838937;78;21007;-57
2022/09/24 13:18:12;;;;;;;7.12;3.47;;;;;;;13.93;58.89;98002.56;1827842;78;21237;-58
2022/09/24 13:20:41;;;;;;;4.75;3.15;;;;;;;14.04;59.13;97998.47;1828537;78;21030;-58
